Time;durP1;ratioP1;P1;durP2;ratioP2;P2;SDS_P1;SDS_P2;PMS_P1;PMS_P2;Temp;Humidity;BMP_temperature;BMP_pressure;BME280_temperature;BME280_humidity;BME280_pressure;Samples;Min_cycle;Max_cycle;Signal;HPM_P1;HPM_P2
2022/10/22 00:01:37;;;;;;;7.43;6.60;;;12.70;99.90;;;;;;5073700;28;20439;-67
2022/10/22 00:04:06;;;;;;;12.57;8.57;;;12.70;99.90;;;;;;5074266;28;20797;-67
2022/10/22 00:06:33;;;;;;;10.60;8.10;;;12.70;99.90;;;;;;5073310;28;20444;-67
2022/10/22 00:09:00;;;;;;;9.63;8.07;;;12.60;99.90;;;;;;5072961;28;20485;-67
2022/10/22 00:11:26;;;;;;;10.70;7.83;;;12.60;99.90;;;;;;5073717;28;20439;-67
2022/10/22 00:13:53;;;;;;;10.13;7.93;;;12.60;99.90;;;;;;5073250;28;20451;-66
2022/10/22 00:16:20;;;;;;;10.77;8.63;;;12.60;99.90;;;;;;5072989;28;20479;-67
2022/10/22 00:18:47;;;;;;;9.37;8.33;;;12.60;99.90;;;;;;5073099;28;20463;-67
2022/10/22 00:21:15;;;;;;;9.00;8.10;;;12.60;99.90;;;;;;5073148;28;20439;-66
2022/10/22 00:23:42;;;;;;;13.10;8.80;;;12.60;99.90;;;;;;5072832;28;20934;-67
2022/10/22 00:26:09;;;;;;;10.90;8.17;;;12.60;99.90;;;;;;5075338;28;20463;-67
2022/10/22 00:28:36;;;;;;;8.03;7.23;;;12.60;99.90;;;;;;5077335;28;20467;-66
2022/10/22 00:31:03;;;;;;;9.80;7.50;;;12.50;99.90;;;;;;5077577;28;20451;-66
2022/10/22 00:33:30;;;;;;;9.47;8.57;;;12.50;99.90;;;;;;5077244;28;20439;-66
2022/10/22 00:35:57;;;;;;;9.17;8.23;;;12.50;99.90;;;;;;5077069;28;21017;-66
2022/10/22 00:38:25;;;;;;;11.10;9.43;;;12.60;99.90;;;;;;5077374;28;20471;-67
2022/10/22 00:40:52;;;;;;;11.63;8.00;;;12.50;99.90;;;;;;5078553;28;20458;-67
2022/10/22 00:43:20;;;;;;;12.30;8.70;;;12.60;99.90;;;;;;5077657;28;20814;-66
2022/10/22 00:45:47;;;;;;;10.53;8.47;;;12.50;99.90;;;;;;5077155;28;20436;-66
2022/10/22 00:48:16;;;;;;;9.53;8.17;;;12.50;99.90;;;;;;5077133;28;20467;-66
2022/10/22 00:50:47;;;;;;;8.60;7.70;;;12.50;99.90;;;;;;5077204;28;20447;-66
2022/10/22 00:53:16;;;;;;;13.10;9.20;;;12.50;99.90;;;;;;5076640;28;20431;-66
2022/10/22 00:55:48;;;;;;;9.67;7.50;;;12.50;99.90;;;;;;5076909;28;20672;-66
2022/10/22 00:58:15;;;;;;;11.53;8.17;;;12.40;99.90;;;;;;5076954;28;20486;-67
2022/10/22 01:00:42;;;;;;;9.40;7.97;;;12.40;99.90;;;;;;5076644;28;20450;-67
2022/10/22 01:03:09;;;;;;;8.60;7.47;;;12.40;99.90;;;;;;5076324;28;20451;-66
2022/10/22 01:05:42;;;;;;;10.73;7.77;;;12.40;99.90;;;;;;5076235;28;20463;-67
2022/10/22 01:08:19;;;;;;;10.27;8.77;;;12.40;99.90;;;;;;5076399;28;20475;-65
2022/10/22 01:10:54;;;;;;;11.60;8.10;;;12.40;99.90;;;;;;5076601;28;20427;-66
2022/10/22 01:13:33;;;;;;;9.57;8.40;;;12.30;99.90;;;;;;5076565;28;20431;-65
2022/10/22 01:16:08;;;;;;;10.03;8.17;;;12.30;99.90;;;;;;5076335;28;20481;-67
2022/10/22 01:18:39;;;;;;;9.57;8.47;;;12.30;99.90;;;;;;5076206;28;20816;-66
2022/10/22 01:21:16;;;;;;;9.13;7.70;;;12.30;99.90;;;;;;5076342;28;20435;-64
2022/10/22 01:24:05;;;;;;;10.77;7.90;;;12.30;99.90;;;;;;5076377;28;20434;-67
2022/10/22 01:26:52;;;;;;;9.83;7.60;;;12.30;99.90;;;;;;5076112;28;20432;-66
2022/10/22 01:29:24;;;;;;;13.10;7.93;;;12.30;99.90;;;;;;5062709;28;20471;-67
2022/10/22 01:31:54;;;;;;;9.67;8.33;;;12.30;99.90;;;;;;5075992;28;20431;-66
2022/10/22 01:34:23;;;;;;;11.03;9.13;;;12.30;99.90;;;;;;5075852;28;20428;-66
2022/10/22 01:36:51;;;;;;;11.17;9.20;;;12.20;99.90;;;;;;5075285;28;20479;-66
2022/10/22 01:39:19;;;;;;;12.40;9.30;;;12.20;99.90;;;;;;5075484;28;21001;-66
2022/10/22 01:41:46;;;;;;;9.20;8.17;;;12.20;99.90;;;;;;5075754;28;20453;-66
2022/10/22 01:44:29;;;;;;;9.57;8.10;;;12.20;99.90;;;;;;5075921;28;20803;-66
2022/10/22 01:47:07;;;;;;;10.70;8.20;;;12.20;99.90;;;;;;5076263;28;20419;-66
2022/10/22 01:49:46;;;;;;;10.60;7.37;;;12.20;99.90;;;;;;5075517;28;20470;-66
2022/10/22 01:52:21;;;;;;;12.50;9.87;;;12.20;99.90;;;;;;5075509;28;20443;-66
2022/10/22 01:54:56;;;;;;;11.87;8.47;;;12.20;99.90;;;;;;5075807;28;20411;-65
2022/10/22 01:57:32;;;;;;;12.03;9.00;;;12.20;99.90;;;;;;5075782;28;20437;-67
2022/10/22 02:00:05;;;;;;;12.20;8.70;;;12.30;99.90;;;;;;5075488;28;20445;-65
2022/10/22 02:02:40;;;;;;;14.13;8.37;;;12.30;99.90;;;;;;5076474;28;20423;-66
2022/10/22 02:05:12;;;;;;;14.67;9.63;;;12.20;99.90;;;;;;5075553;28;20426;-66
2022/10/22 02:07:43;;;;;;;12.83;10.47;;;12.20;99.90;;;;;;5075352;28;20451;-64
2022/10/22 02:10:11;;;;;;;12.10;9.60;;;12.20;99.90;;;;;;5075480;28;20419;-66
2022/10/22 02:12:39;;;;;;;14.37;9.30;;;12.30;99.90;;;;;;5075536;28;20435;-66
2022/10/22 02:15:10;;;;;;;11.70;9.80;;;12.30;99.90;;;;;;5075215;28;20443;-66
2022/10/22 02:17:39;;;;;;;12.33;9.40;;;12.30;99.90;;;;;;5075182;28;20466;-66
2022/10/22 02:20:10;;;;;;;16.63;8.70;;;12.20;99.90;;;;;;5075196;28;20450;-66
2022/10/22 02:22:37;;;;;;;12.67;8.00;;;12.30;99.90;;;;;;5076447;28;20423;-65
2022/10/22 02:25:04;;;;;;;13.40;8.93;;;12.30;99.90;;;;;;5074940;28;20438;-66
2022/10/22 02:27:35;;;;;;;14.33;9.03;;;12.20;99.90;;;;;;5075320;28;20447;-66
2022/10/22 02:30:06;;;;;;;9.63;8.50;;;12.20;99.90;;;;;;5075063;28;20439;-66
2022/10/22 02:32:39;;;;;;;10.63;8.90;;;12.20;99.90;;;;;;5075004;28;20775;-66
2022/10/22 02:35:10;;;;;;;12.37;9.27;;;12.20;99.90;;;;;;5074827;28;20442;-66
2022/10/22 02:37:38;;;;;;;10.13;8.50;;;12.20;99.90;;;;;;5074854;28;20439;-66
2022/10/22 02:40:06;;;;;;;11.27;9.00;;;12.20;99.90;;;;;;5074980;28;20474;-67
2022/10/22 02:42:34;;;;;;;10.80;8.07;;;12.20;99.90;;;;;;5074855;28;20443;-66
2022/10/22 02:45:01;;;;;;;11.60;9.20;;;12.20;99.90;;;;;;5074806;28;20447;-67
2022/10/22 02:47:28;;;;;;;14.10;8.87;;;12.20;99.90;;;;;;5074752;28;20446;-67
2022/10/22 02:49:56;;;;;;;9.50;8.00;;;12.20;99.90;;;;;;5073983;28;20467;-66
2022/10/22 02:52:22;;;;;;;11.03;8.27;;;12.20;99.90;;;;;;5074908;28;20817;-66
2022/10/22 02:54:49;;;;;;;9.07;8.17;;;12.20;99.90;;;;;;5074921;28;20442;-67
2022/10/22 02:57:16;;;;;;;11.67;8.30;;;12.20;99.90;;;;;;5074722;28;20851;-64
2022/10/22 02:59:42;;;;;;;12.20;8.50;;;12.20;99.90;;;;;;5074265;28;20474;-65
2022/10/22 03:02:09;;;;;;;7.70;6.93;;;12.20;99.90;;;;;;5074608;28;20454;-66
2022/10/22 03:04:36;;;;;;;12.57;9.30;;;12.10;99.90;;;;;;5074709;28;20806;-65
2022/10/22 03:07:04;;;;;;;10.13;7.90;;;12.20;99.90;;;;;;5074841;28;20450;-66
2022/10/22 03:09:31;;;;;;;12.93;8.00;;;12.20;99.90;;;;;;5074720;28;20488;-66
2022/10/22 03:11:57;;;;;;;11.17;8.30;;;12.10;99.90;;;;;;5074846;28;20824;-66
2022/10/22 03:14:24;;;;;;;11.60;8.80;;;12.20;99.90;;;;;;5074231;28;20772;-66
2022/10/22 03:16:51;;;;;;;10.83;8.53;;;12.20;99.90;;;;;;5073874;28;21028;-66
2022/10/22 03:19:18;;;;;;;11.60;8.07;;;12.20;99.90;;;;;;5074244;28;20468;-66
2022/10/22 03:21:48;;;;;;;11.30;8.30;;;12.20;99.90;;;;;;5073954;28;20439;-67
2022/10/22 03:24:20;;;;;;;9.87;8.60;;;12.20;99.90;;;;;;5073721;28;20926;-66
2022/10/22 03:26:49;;;;;;;8.80;7.90;;;12.20;99.90;;;;;;5074084;28;20522;-66
2022/10/22 03:29:16;;;;;;;9.90;8.03;;;12.20;99.90;;;;;;5073747;28;20475;-66
2022/10/22 03:31:43;;;;;;;11.13;9.00;;;12.20;99.90;;;;;;5074661;28;20470;-66
2022/10/22 03:34:12;;;;;;;9.10;7.23;;;12.20;99.90;;;;;;5074585;28;20450;-66
2022/10/22 03:36:40;;;;;;;10.20;7.73;;;12.20;99.90;;;;;;5073631;28;20475;-66
2022/10/22 03:39:07;;;;;;;8.73;7.30;;;12.20;99.90;;;;;;5073966;28;20459;-66
2022/10/22 03:41:36;;;;;;;11.90;7.93;;;12.20;99.90;;;;;;5073652;28;20443;-66
2022/10/22 03:44:04;;;;;;;9.40;7.00;;;12.20;99.90;;;;;;5073565;28;20451;-66
2022/10/22 03:46:31;;;;;;;9.73;8.07;;;12.10;99.90;;;;;;5073290;28;20439;-65
2022/10/22 03:48:58;;;;;;;9.50;8.33;;;12.10;99.90;;;;;;5073481;28;20465;-65
2022/10/22 03:51:26;;;;;;;12.50;7.27;;;12.10;99.90;;;;;;5073518;28;20450;-67
2022/10/22 03:53:53;;;;;;;12.03;8.20;;;12.10;99.90;;;;;;5073962;28;20443;-65
2022/10/22 03:56:20;;;;;;;9.93;7.73;;;12.10;99.90;;;;;;5073408;28;20479;-66
2022/10/22 03:58:48;;;;;;;8.23;7.30;;;12.10;99.90;;;;;;5073738;28;20822;-66
2022/10/22 04:01:15;;;;;;;9.43;8.37;;;12.10;99.90;;;;;;5072974;28;20473;-67
2022/10/22 04:03:41;;;;;;;10.73;7.60;;;12.10;99.90;;;;;;5072971;28;20443;-65
2022/10/22 04:06:10;;;;;;;9.33;7.40;;;12.20;99.90;;;;;;5080129;28;20450;-66
2022/10/22 04:10:24;;;;;;;10.70;8.30;;;12.20;99.90;;;;;;5171816;27;20536;-66
2022/10/22 04:12:51;;;;;;;9.43;7.53;;;12.20;99.90;;;;;;5155303;27;20435;-66
2022/10/22 04:15:18;;;;;;;11.20;7.83;;;12.20;99.90;;;;;;5154809;27;20424;-66
2022/10/22 04:17:45;;;;;;;8.53;6.60;;;12.20;99.90;;;;;;5154359;27;20959;-66
2022/10/22 04:20:12;;;;;;;8.40;7.50;;;12.20;99.90;;;;;;5154366;27;20446;-67
2022/10/22 04:22:38;;;;;;;11.20;7.00;;;12.20;99.90;;;;;;5154646;27;20435;-66
2022/10/22 04:25:06;;;;;;;8.83;6.97;;;12.20;99.90;;;;;;5154850;27;20447;-66
2022/10/22 04:27:34;;;;;;;10.20;7.80;;;12.20;99.90;;;;;;5154510;27;20436;-66
2022/10/22 04:30:01;;;;;;;11.50;8.23;;;12.20;99.90;;;;;;5154622;27;20510;-67
2022/10/22 04:32:28;;;;;;;8.53;7.07;;;12.30;99.90;;;;;;5155467;27;20450;-67
2022/10/22 04:34:55;;;;;;;9.00;7.87;;;12.30;99.90;;;;;;5156357;27;20450;-66
2022/10/22 04:37:22;;;;;;;8.93;7.00;;;12.30;99.90;;;;;;5152141;27;20440;-66
2022/10/22 04:39:49;;;;;;;11.90;8.77;;;12.30;99.90;;;;;;5151657;27;20464;-67
2022/10/22 04:42:16;;;;;;;10.17;7.93;;;12.30;99.90;;;;;;5152536;27;20447;-66
2022/10/22 04:44:44;;;;;;;11.93;8.83;;;12.40;99.90;;;;;;5154652;27;20439;-66
2022/10/22 04:47:10;;;;;;;10.23;8.47;;;12.50;99.90;;;;;;5154189;27;20811;-65
2022/10/22 04:49:37;;;;;;;10.20;8.27;;;12.50;99.90;;;;;;5154279;27;20502;-66
2022/10/22 04:52:04;;;;;;;10.33;8.57;;;12.50;99.90;;;;;;5153753;27;20449;-67
2022/10/22 04:54:31;;;;;;;10.67;9.33;;;12.50;99.90;;;;;;5152105;27;20443;-67
2022/10/22 04:56:57;;;;;;;9.97;8.90;;;12.50;99.90;;;;;;5151935;27;20440;-66
2022/10/22 04:59:24;;;;;;;12.90;8.47;;;12.40;99.90;;;;;;5153051;27;20463;-67
2022/10/22 05:01:52;;;;;;;11.83;7.83;;;12.40;99.90;;;;;;5155247;27;20450;-66
2022/10/22 05:04:19;;;;;;;12.00;7.70;;;12.40;99.90;;;;;;5153464;27;20807;-66
2022/10/22 05:06:46;;;;;;;10.83;8.47;;;12.40;99.90;;;;;;5153708;27;20448;-66
2022/10/22 05:09:15;;;;;;;12.67;8.57;;;12.30;99.90;;;;;;5144392;22;20494;-64
2022/10/22 05:11:44;;;;;;;11.80;8.40;;;12.30;99.90;;;;;;5091582;28;20541;-66
2022/10/22 05:14:12;;;;;;;10.77;8.50;;;12.30;99.90;;;;;;5090697;28;20446;-66
2022/10/22 05:16:39;;;;;;;13.13;8.37;;;12.20;99.90;;;;;;5091257;28;20449;-65
2022/10/22 05:19:08;;;;;;;12.93;7.53;;;12.20;99.90;;;;;;5091619;28;21041;-64
2022/10/22 05:21:35;;;;;;;10.67;7.13;;;12.20;99.90;;;;;;5079714;28;20442;-65
2022/10/22 05:24:03;;;;;;;13.30;8.87;;;12.20;99.90;;;;;;5078018;28;20439;-65
2022/10/22 05:26:29;;;;;;;9.73;8.73;;;12.20;99.90;;;;;;5076649;28;20454;-65
2022/10/22 05:28:56;;;;;;;9.73;7.57;;;12.20;99.90;;;;;;5076140;28;20987;-65
2022/10/22 05:31:23;;;;;;;9.20;7.73;;;12.20;99.90;;;;;;5076266;28;20454;-65
2022/10/22 05:33:50;;;;;;;10.43;8.50;;;12.20;99.90;;;;;;5075503;28;20955;-65
2022/10/22 05:36:20;;;;;;;9.90;8.70;;;12.10;99.90;;;;;;5075962;28;20443;-65
2022/10/22 05:38:47;;;;;;;8.03;7.13;;;12.10;99.90;;;;;;5075854;28;20467;-65
2022/10/22 05:41:17;;;;;;;11.63;8.60;;;12.10;99.90;;;;;;5075772;28;20443;-65
2022/10/22 05:43:44;;;;;;;10.90;8.20;;;12.10;99.90;;;;;;5075701;28;20954;-65
2022/10/22 05:46:12;;;;;;;11.77;7.50;;;12.10;99.90;;;;;;5075689;28;20954;-65
2022/10/22 05:48:39;;;;;;;10.90;7.97;;;12.10;99.90;;;;;;5076261;28;20474;-65
2022/10/22 05:51:08;;;;;;;11.30;8.73;;;12.10;99.90;;;;;;5075245;28;20953;-65
2022/10/22 05:53:38;;;;;;;9.80;8.80;;;12.10;99.90;;;;;;5075817;28;20439;-65
2022/10/22 05:56:07;;;;;;;12.13;9.57;;;12.10;99.90;;;;;;5075923;28;20539;-65
2022/10/22 05:58:35;;;;;;;11.53;9.03;;;12.00;99.90;;;;;;5075027;28;20830;-65
2022/10/22 06:01:02;;;;;;;9.47;8.43;;;12.10;99.90;;;;;;5075820;28;20450;-64
2022/10/22 06:03:30;;;;;;;11.80;10.30;;;12.10;99.90;;;;;;5075156;28;20456;-65
2022/10/22 06:05:57;;;;;;;10.87;8.90;;;12.00;99.90;;;;;;5074963;28;20453;-65
2022/10/22 06:08:24;;;;;;;12.77;9.77;;;12.00;99.90;;;;;;5075988;28;21029;-64
2022/10/22 06:10:52;;;;;;;14.73;9.80;;;12.00;99.90;;;;;;5075767;28;20470;-65
2022/10/22 06:13:19;;;;;;;11.27;8.40;;;12.00;99.90;;;;;;5075768;28;20447;-66
2022/10/22 06:15:46;;;;;;;12.03;8.93;;;12.00;99.90;;;;;;5076255;28;20550;-65
2022/10/22 06:18:13;;;;;;;12.50;8.27;;;12.00;99.90;;;;;;5075210;28;20466;-65
2022/10/22 06:20:42;;;;;;;13.87;9.37;;;12.00;99.90;;;;;;5074829;28;20444;-65
2022/10/22 06:23:08;;;;;;;12.13;9.40;;;11.90;99.90;;;;;;5073304;28;20447;-65
2022/10/22 06:25:35;;;;;;;11.43;8.70;;;12.00;99.90;;;;;;5075199;28;20435;-66
2022/10/22 06:28:03;;;;;;;11.70;10.47;;;11.90;99.90;;;;;;5074052;28;21731;-65
2022/10/22 06:30:30;;;;;;;15.37;11.30;;;11.90;99.90;;;;;;5070922;28;20467;-64
2022/10/22 06:32:57;;;;;;;12.47;9.10;;;12.00;99.90;;;;;;5072887;28;20450;-65
2022/10/22 06:35:23;;;;;;;14.10;9.80;;;12.00;99.90;;;;;;5075246;28;20443;-65
2022/10/22 06:37:50;;;;;;;16.60;10.73;;;12.00;99.90;;;;;;5074976;28;20461;-64
2022/10/22 06:40:18;;;;;;;10.87;8.83;;;12.10;99.90;;;;;;5074639;28;20470;-64
2022/10/22 06:42:44;;;;;;;11.83;10.30;;;12.10;99.90;;;;;;5073589;28;20939;-63
2022/10/22 06:45:13;;;;;;;12.70;9.80;;;12.20;99.90;;;;;;5073659;28;20943;-64
2022/10/22 06:47:39;;;;;;;13.50;9.80;;;12.20;99.90;;;;;;5074667;28;20447;-64
2022/10/22 06:50:07;;;;;;;11.67;9.27;;;12.30;99.90;;;;;;5074281;28;20487;-65
2022/10/22 06:52:34;;;;;;;12.73;9.90;;;12.30;99.90;;;;;;5074280;28;20443;-64
2022/10/22 06:55:00;;;;;;;13.67;9.30;;;12.40;99.90;;;;;;5074395;28;20463;-64
2022/10/22 06:57:27;;;;;;;11.60;9.90;;;12.50;99.90;;;;;;5074082;28;20439;-65
2022/10/22 06:59:54;;;;;;;16.70;9.93;;;12.50;99.90;;;;;;5073865;28;20482;-63
2022/10/22 07:02:22;;;;;;;12.70;10.07;;;12.60;99.90;;;;;;5074233;28;20450;-64
2022/10/22 07:04:49;;;;;;;12.17;9.60;;;12.60;99.90;;;;;;5074266;28;20444;-65
2022/10/22 07:07:16;;;;;;;12.40;8.93;;;12.60;99.90;;;;;;5075031;28;20542;-64
2022/10/22 07:09:44;;;;;;;9.70;8.70;;;12.60;99.90;;;;;;5074169;28;20858;-63
2022/10/22 07:12:11;;;;;;;9.93;8.67;;;12.60;99.90;;;;;;5075260;28;20494;-64
2022/10/22 07:14:38;;;;;;;13.67;10.20;;;12.60;99.90;;;;;;5074968;28;20440;-63
2022/10/22 07:17:05;;;;;;;14.07;9.73;;;12.60;99.90;;;;;;5075155;28;20769;-64
2022/10/22 07:19:33;;;;;;;9.30;8.30;;;12.60;99.90;;;;;;5073636;28;20467;-63
2022/10/22 07:22:00;;;;;;;11.70;8.87;;;12.60;99.90;;;;;;5074273;28;20462;-65
2022/10/22 07:24:27;;;;;;;10.57;8.50;;;12.70;99.90;;;;;;5074532;28;20439;-65
2022/10/22 07:26:54;;;;;;;11.30;8.70;;;12.70;99.90;;;;;;5075102;28;20966;-65
2022/10/22 07:29:20;;;;;;;12.83;11.53;;;12.90;99.90;;;;;;5074158;28;20475;-65
2022/10/22 07:31:47;;;;;;;11.00;9.00;;;13.00;99.90;;;;;;5074490;28;20522;-63
2022/10/22 07:34:14;;;;;;;11.00;8.20;;;13.10;99.90;;;;;;5073947;28;20812;-64
2022/10/22 07:36:42;;;;;;;11.17;9.17;;;13.30;99.90;;;;;;5073925;28;20775;-65
2022/10/22 07:39:09;;;;;;;9.67;8.67;;;13.40;99.90;;;;;;5073602;28;20463;-64
2022/10/22 07:41:35;;;;;;;11.23;8.53;;;13.50;99.90;;;;;;5073822;28;20443;-64
2022/10/22 07:44:02;;;;;;;8.43;7.63;;;13.60;99.90;;;;;;5073230;28;20454;-63
2022/10/22 07:46:29;;;;;;;8.23;6.40;;;13.60;99.90;;;;;;5073460;28;20817;-64
2022/10/22 07:48:56;;;;;;;8.47;7.30;;;13.70;99.90;;;;;;5073466;28;20542;-60
2022/10/22 07:51:23;;;;;;;9.10;7.57;;;13.70;99.90;;;;;;5074320;28;20487;-62
2022/10/22 07:53:51;;;;;;;8.13;7.30;;;13.80;99.90;;;;;;5074164;28;20439;-62
2022/10/22 07:56:17;;;;;;;8.07;7.27;;;14.00;99.90;;;;;;5074049;28;20455;-64
2022/10/22 07:58:44;;;;;;;6.50;5.90;;;14.10;99.90;;;;;;5073558;28;20463;-64
2022/10/22 08:01:11;;;;;;;11.40;7.17;;;14.30;99.90;;;;;;5073511;28;20436;-63
2022/10/22 08:03:38;;;;;;;7.07;5.90;;;14.40;99.90;;;;;;5074747;28;20451;-61
2022/10/22 08:06:05;;;;;;;7.37;6.40;;;14.60;99.90;;;;;;5073762;28;20439;-62
2022/10/22 08:08:32;;;;;;;7.90;6.97;;;14.80;99.90;;;;;;5073520;28;20478;-63
2022/10/22 08:11:01;;;;;;;5.83;5.30;;;15.00;99.90;;;;;;5073477;28;20463;-62
2022/10/22 08:13:29;;;;;;;5.63;4.93;;;15.20;99.90;;;;;;5074508;28;20452;-64
2022/10/22 08:15:56;;;;;;;6.47;4.83;;;15.30;99.90;;;;;;5074381;28;20442;-63
2022/10/22 08:18:23;;;;;;;4.97;4.50;;;15.30;99.90;;;;;;5074200;28;20576;-63
2022/10/22 08:20:51;;;;;;;5.33;4.23;;;15.40;99.90;;;;;;5074476;28;20475;-61
2022/10/22 08:23:18;;;;;;;6.47;5.20;;;15.50;99.90;;;;;;5074144;28;20447;-63
2022/10/22 08:25:44;;;;;;;5.47;4.97;;;15.50;99.90;;;;;;5074885;28;20812;-62
2022/10/22 08:28:12;;;;;;;6.93;4.97;;;15.50;99.90;;;;;;5073913;28;20915;-62
2022/10/22 08:30:40;;;;;;;7.23;5.70;;;15.40;99.90;;;;;;5074633;28;20502;-62
2022/10/22 08:33:07;;;;;;;5.97;4.53;;;15.50;99.90;;;;;;5074410;28;20474;-62
2022/10/22 08:35:34;;;;;;;5.97;5.37;;;15.50;99.90;;;;;;5074686;28;20443;-64
2022/10/22 08:38:01;;;;;;;5.80;5.10;;;15.50;99.90;;;;;;5074124;28;20458;-61
2022/10/22 08:40:32;;;;;;;5.90;5.30;;;15.60;99.90;;;;;;5074742;28;20803;-62
2022/10/22 08:43:52;;;;;;;6.90;4.80;;;15.70;99.90;;;;;;5074522;28;20443;-62
2022/10/22 08:46:51;;;;;;;5.30;4.80;;;15.70;99.90;;;;;;4967911;28;20828;-60
2022/10/22 08:49:22;;;;;;;4.97;4.10;;;15.80;99.90;;;;;;4972258;28;20475;-65
2022/10/22 08:51:49;;;;;;;5.63;5.03;;;15.90;99.90;;;;;;5060955;28;20489;-63
2022/10/22 08:54:25;;;;;;;4.97;3.60;;;15.90;99.90;;;;;;5074167;28;20518;-63
2022/10/22 08:57:09;;;;;;;4.70;4.27;;;16.00;99.90;;;;;;5077037;28;20430;-64
2022/10/22 08:59:44;;;;;;;5.17;4.13;;;16.00;99.90;;;;;;5077593;28;20467;-62
2022/10/22 09:02:22;;;;;;;3.97;3.63;;;16.20;99.90;;;;;;5077681;28;20430;-63
2022/10/22 09:05:00;;;;;;;4.80;4.30;;;16.30;99.90;;;;;;5077451;28;20427;-65
2022/10/22 09:07:27;;;;;;;5.90;4.73;;;16.40;99.90;;;;;;5078307;28;20432;-62
2022/10/22 09:09:57;;;;;;;4.97;4.27;;;16.50;99.90;;;;;;5077655;28;20579;-63
2022/10/22 09:12:27;;;;;;;6.83;5.10;;;16.50;99.90;;;;;;5078871;28;20776;-62
2022/10/22 09:14:54;;;;;;;7.43;4.70;;;16.60;99.90;;;;;;5078852;28;20447;-65
2022/10/22 09:17:32;;;;;;;4.67;4.03;;;16.70;99.90;;;;;;5078089;28;20965;-64
2022/10/22 09:20:08;;;;;;;3.83;3.43;;;16.80;99.90;;;;;;5079838;28;20467;-65
2022/10/22 09:22:39;;;;;;;5.83;3.67;;;16.90;99.90;;;;;;5077815;28;20466;-63
2022/10/22 09:25:18;;;;;;;5.53;3.60;;;17.10;99.90;;;;;;5077704;28;20427;-62
2022/10/22 09:27:45;;;;;;;5.40;3.97;;;17.20;99.90;;;;;;5077519;28;20435;-62
2022/10/22 09:30:16;;;;;;;7.90;3.50;;;17.30;99.90;;;;;;5077429;28;20491;-64
2022/10/22 09:32:45;;;;;;;4.10;2.90;;;17.40;99.90;;;;;;5076688;28;20433;-63
2022/10/22 09:35:13;;;;;;;3.90;3.30;;;17.50;99.90;;;;;;5076229;28;20432;-62
2022/10/22 09:37:48;;;;;;;3.60;2.73;;;17.60;99.90;;;;;;5077092;28;20534;-61
2022/10/22 09:40:16;;;;;;;3.60;3.27;;;17.70;99.90;;;;;;5076497;28;20485;-64
2022/10/22 09:42:44;;;;;;;4.00;2.50;;;17.70;99.90;;;;;;5076583;28;20439;-62
2022/10/22 09:45:18;;;;;;;5.20;3.07;;;17.70;99.90;;;;;;5076868;28;20448;-62
2022/10/22 09:47:47;;;;;;;5.27;3.10;;;17.80;99.90;;;;;;5076301;28;20450;-62
2022/10/22 09:50:28;;;;;;;3.40;3.00;;;17.90;99.90;;;;;;5076189;28;20491;-61
2022/10/22 09:52:59;;;;;;;5.30;3.20;;;18.00;99.90;;;;;;5077340;28;20428;-64
2022/10/22 09:55:26;;;;;;;12.13;3.87;;;18.10;99.90;;;;;;5076676;28;20447;-62
2022/10/22 09:57:55;;;;;;;5.37;2.80;;;18.20;99.90;;;;;;5076003;28;20504;-61
2022/10/22 10:00:23;;;;;;;4.90;3.00;;;18.30;99.90;;;;;;5075894;28;20892;-61
2022/10/22 10:02:56;;;;;;;4.57;2.97;;;18.30;99.90;;;;;;5076644;28;20909;-62
2022/10/22 10:05:28;;;;;;;3.70;2.37;;;18.30;99.90;;;;;;5076755;28;20486;-63
2022/10/22 10:07:55;;;;;;;4.93;2.70;;;18.40;99.90;;;;;;5077138;28;20434;-63
2022/10/22 10:10:32;;;;;;;3.10;2.80;;;18.50;99.90;;;;;;5077024;28;20491;-62
2022/10/22 10:13:09;;;;;;;4.97;3.07;;;18.50;99.90;;;;;;5076870;28;20427;-62
2022/10/22 10:15:44;;;;;;;5.00;2.50;;;18.60;99.90;;;;;;5076842;28;20939;-62
2022/10/22 10:18:25;;;;;;;5.20;3.10;;;18.60;99.90;;;;;;5075866;28;20443;-62
2022/10/22 10:21:00;;;;;;;5.23;3.07;;;18.70;99.90;;;;;;5076786;28;20497;-63
2022/10/22 10:23:34;;;;;;;5.37;2.80;;;18.90;99.90;;;;;;5077093;28;20433;-62
2022/10/22 10:26:07;;;;;;;5.40;2.70;;;19.00;99.90;;;;;;5076153;28;20435;-62
2022/10/22 10:28:46;;;;;;;6.37;3.20;;;19.20;99.90;;;;;;5076267;28;20470;-63
2022/10/22 10:31:20;;;;;;;3.30;3.00;;;19.20;99.90;;;;;;5075804;28;20832;-63
2022/10/22 10:33:57;;;;;;;3.00;2.43;;;19.10;99.90;;;;;;5076272;28;20440;-60
2022/10/22 10:36:35;;;;;;;3.63;2.57;;;19.10;99.90;;;;;;5075019;28;20435;-62
2022/10/22 10:39:08;;;;;;;3.80;2.63;;;19.10;99.90;;;;;;5075973;28;20959;-61
2022/10/22 10:41:47;;;;;;;3.70;3.00;;;19.00;99.90;;;;;;5075216;28;20424;-63
2022/10/22 10:44:43;;;;;;;7.17;3.17;;;18.90;99.90;;;;;;5075350;28;20438;-62
2022/10/22 10:47:25;;;;;;;3.60;2.73;;;19.00;99.90;;;;;;5075610;28;20427;-62
2022/10/22 10:49:57;;;;;;;5.30;2.53;;;19.10;99.90;;;;;;5075248;28;20459;-62
2022/10/22 10:52:33;;;;;;;3.30;3.00;;;19.20;99.90;;;;;;5074963;28;20554;-62
2022/10/22 10:55:12;;;;;;;8.07;3.57;;;19.40;99.90;;;;;;5074735;28;20423;-60
2022/10/22 10:57:46;;;;;;;6.00;4.00;;;19.50;99.90;;;;;;5074528;28;20485;-61
2022/10/22 11:00:16;;;;;;;7.70;3.27;;;19.50;99.90;;;;;;5074818;28;20466;-60
2022/10/22 11:03:34;;;;;;;5.80;3.50;;;19.40;99.90;;;;;;5076852;28;20522;-63
2022/10/22 11:06:07;;;;;;;3.73;2.53;;;19.40;99.90;;;;;;5075817;28;20812;-61
2022/10/22 11:08:37;;;;;;;4.00;2.93;;;19.50;99.90;;;;;;5099875;22;20483;-59
2022/10/22 11:11:08;;;;;;;6.80;3.43;;;19.50;99.90;;;;;;5095213;28;20551;-61
2022/10/22 11:13:39;;;;;;;9.70;2.97;;;19.50;99.90;;;;;;5096264;28;20423;-62
2022/10/22 11:16:12;;;;;;;4.40;3.07;;;19.40;99.90;;;;;;5096663;28;20445;-62
2022/10/22 11:18:43;;;;;;;4.23;3.30;;;19.40;99.90;;;;;;5096649;28;20426;-61
2022/10/22 11:21:21;;;;;;;4.33;2.77;;;19.50;99.90;;;;;;5097997;28;20426;-59
2022/10/22 11:23:54;;;;;;;5.50;3.00;;;19.50;99.90;;;;;;5095755;28;20426;-61
2022/10/22 11:26:30;;;;;;;3.10;2.60;;;19.40;99.90;;;;;;5093723;28;20438;-61
2022/10/22 11:28:59;;;;;;;3.33;3.03;;;19.50;99.90;;;;;;5093461;28;20821;-61
2022/10/22 11:31:27;;;;;;;3.97;3.27;;;19.50;99.90;;;;;;5093609;28;20949;-62
2022/10/22 11:34:01;;;;;;;4.90;2.70;;;19.50;99.90;;;;;;5095171;28;20461;-62
2022/10/22 11:36:30;;;;;;;4.57;3.27;;;19.40;99.90;;;;;;5093475;28;20517;-62
2022/10/22 11:38:57;;;;;;;7.43;2.53;;;19.40;99.90;;;;;;5093499;28;20475;-62
2022/10/22 11:41:29;;;;;;;5.83;2.57;;;19.40;99.90;;;;;;5093674;28;20442;-62
2022/10/22 11:44:08;;;;;;;3.50;2.30;;;19.40;99.90;;;;;;5093453;28;20430;-61
2022/10/22 11:46:43;;;;;;;5.23;2.73;;;19.50;99.90;;;;;;5094194;28;20423;-60
2022/10/22 11:49:23;;;;;;;8.17;2.70;;;19.50;99.90;;;;;;5093559;28;20468;-59
2022/10/22 11:52:05;;;;;;;3.00;2.27;;;19.70;99.90;;;;;;5093251;28;20839;-60
2022/10/22 11:54:42;;;;;;;4.53;2.57;;;19.60;99.90;;;;;;5093442;28;20439;-61
2022/10/22 11:57:19;;;;;;;4.20;2.53;;;19.40;99.90;;;;;;5093462;28;20434;-62
2022/10/22 11:59:50;;;;;;;3.23;2.37;;;19.30;99.90;;;;;;5093139;28;20960;-62
2022/10/22 12:02:44;;;;;;;4.20;2.70;;;19.20;99.90;;;;;;5093279;28;20422;-62
2022/10/22 12:05:35;;;;;;;4.13;1.93;;;19.10;99.90;;;;;;5093018;28;20518;-62
2022/10/22 12:08:15;;;;;;;3.70;2.47;;;19.20;99.90;;;;;;5093456;28;20426;-59
2022/10/22 12:11:03;;;;;;;4.03;2.37;;;19.30;99.90;;;;;;5092611;28;20489;-61
2022/10/22 12:13:33;;;;;;;6.27;2.73;;;19.40;99.90;;;;;;5092540;28;20803;-61
2022/10/22 12:16:03;;;;;;;7.07;2.93;;;19.40;99.90;;;;;;5093023;28;20473;-62
2022/10/22 12:18:39;;;;;;;5.43;2.73;;;19.40;99.70;;;;;;5093100;28;20439;-61
2022/10/22 12:21:05;;;;;;;3.03;2.10;;;19.40;99.40;;;;;;5092888;28;20423;-61
2022/10/22 12:23:35;;;;;;;7.47;2.20;;;19.30;98.70;;;;;;5092919;28;20961;-61
2022/10/22 12:26:04;;;;;;;6.40;1.90;;;19.30;98.50;;;;;;5093159;28;20447;-61
2022/10/22 12:28:38;;;;;;;4.33;2.13;;;19.30;98.00;;;;;;5092838;28;20999;-60
2022/10/22 12:31:05;;;;;;;6.23;2.57;;;19.30;97.70;;;;;;5094680;28;20476;-61
2022/10/22 12:33:32;;;;;;;4.37;2.17;;;19.40;97.30;;;;;;5096955;28;20450;-61
2022/10/22 12:36:02;;;;;;;4.70;1.93;;;19.60;96.90;;;;;;5097065;28;20477;-61
2022/10/22 12:38:29;;;;;;;5.47;2.40;;;19.70;96.20;;;;;;5097797;28;20833;-62
2022/10/22 12:40:58;;;;;;;7.27;2.50;;;19.60;95.70;;;;;;5097028;28;20439;-62
2022/10/22 12:43:27;;;;;;;4.87;2.37;;;19.60;95.60;;;;;;5097511;28;20464;-60
2022/10/22 12:45:54;;;;;;;7.20;3.37;;;19.50;95.50;;;;;;5097382;28;20473;-62
2022/10/22 12:48:24;;;;;;;8.50;2.20;;;19.50;95.50;;;;;;5096727;28;20446;-61
2022/10/22 12:50:53;;;;;;;5.30;2.00;;;19.50;95.50;;;;;;5096805;28;20954;-61
2022/10/22 12:53:24;;;;;;;4.33;2.43;;;19.60;95.40;;;;;;5096685;28;20438;-62
2022/10/22 12:55:53;;;;;;;6.00;2.10;;;19.60;95.30;;;;;;5096920;28;20540;-62
2022/10/22 12:58:25;;;;;;;7.00;2.70;;;19.70;95.20;;;;;;5096285;28;20841;-61
2022/10/22 13:00:56;;;;;;;4.50;2.57;;;19.80;95.00;;;;;;5096696;28;20581;-61